Santiago Peralta

Scout - River Plate
7 Mai 2028
Sonntag
Verarbeitung

Persönlichkeit

Anpassungsfähigkeit (17) Ehrgeiz (19) Kontroverse (19) Loyalität (4) Druck (10) Professionalität (8) Fairness (6) Temperament (9)

Profil

Trainerstil Demokratisch
Lizenz Nationale B
Entschlossenheit 6
Menschenführung 8
Motivation 8
Disziplin 6
Arbeitszufriedenheit
100%
Ermüdung
0%
Rolle Scout
Gehalt 15.2K p/W
Vertrag 14.03.2030

Leistung

Verhalten Gut
Trainingseffektivität
30%
Spielerentwicklung
40%
Verletzungsprävention
55%
Taktische Umsetzung
50%

Letzte Ereignisse

Spieler begutachtet jetzt
Spiel beobachtet jetzt
Spiel beobachtet jetzt
Spiel beobachtet jetzt
Spiel beobachtet jetzt
Spiel beobachtet jetzt
Spiel beobachtet jetzt
Spiel beobachtet jetzt

Aktuell beobachtet

177
Spieler Verein Status Fähigkeit Vertrauen Beobachtet Zuletzt beobachtet Letzte Stimme
Sam Proctor Salford City Aktiv 128 / 136 40% 7 06.05.2028 -
Luca Williams-Barnett Walsall Aktiv 118 / 120 40% 4 06.05.2028 -
Kaye Furo Reading Aktiv 132 / 123 40% 2 06.05.2028 -
Giuseppe Forte Sampdoria Aktiv 75 / 83 40% 2 05.05.2028 -
Samuel Atehortúa Deportivo Pereira Aktiv 82 / 87 40% 3 05.05.2028 -
Uchenna Ogundu FC Augsburg Aktiv 120 / 142 40% 3 05.05.2028 -
Sidiki Chérif Newcastle United Aktiv 128 / 140 40% 2 05.05.2028 -
Máximo Casalnuovo Morón Aktiv 93 / 100 40% 1 05.05.2028 -
José Quevedo Tigres Aktiv 86 / 92 40% 1 05.05.2028 -
Martín D'Aurizio Huracán Aktiv 96 / 109 40% 2 04.05.2028 -
Ignacio Roldán Lanús Aktiv 93 / 100 40% 1 04.05.2028 -
Facundo Binzugna Boca Juniors Aktiv 95 / 103 40% 1 03.05.2028 -
Agustín Nogueira Barracas Central Aktiv 94 / 100 40% 1 03.05.2028 -
Emanuel Bonda Argentinos Juniors Aktiv 92 / 97 40% 1 03.05.2028 -
Alejandro Gutiérrez Mineros de Guayana Aktiv 88 / 104 40% 2 02.05.2028 -
Jorge Jimenez Veracruz Aktiv 91 / 103 40% 5 02.05.2028 -
Tobías Pantoja Central Norte Aktiv 109 / 111 40% 2 02.05.2028 -
Renato Ardissono San Lorenzo Aktiv 99 / 94 40% 1 02.05.2028 -
Lisandro Tejada San Martín SJ Aktiv 93 / 104 40% 3 01.05.2028 -
Jerry Afriyie Zulte Waregem Aktiv 102 / 108 40% 2 01.05.2028 -
Alejandro Rojo Deportivo Cali Aktiv 86 / 100 40% 2 01.05.2028 -
Issa Hissein AS Etat Major Aktiv 61 / 61 40% 2 01.05.2028 -
Dylan Martínez River Plate Aktiv 97 / 101 40% 1 01.05.2028 -
Vincenzo Damiano Atalanta Aktiv 109 / 110 40% 4 30.04.2028 -
Fletcher Boyd Accrington Stanley Aktiv 98 / 115 40% 2 30.04.2028 -
Jamal Iddrissou Pergolettese Aktiv 114 / 125 40% 1 29.04.2028 -
Idrissa Guèye Virtus Entella Aktiv 119 / 134 40% 2 28.04.2028 -
Lisandro Musso Central Córdoba SdE Aktiv 89 / 97 40% 2 28.04.2028 -
James Moreno Cortulua Aktiv 89 / 91 40% 1 28.04.2028 -
Ignacio Cardozo Vélez Aktiv 103 / 99 40% 1 28.04.2028 -
Jack Wint Sibenik Aktiv 102 / 106 40% 4 27.04.2028 -
Gerardo Díaz San Martín SJ Aktiv 108 / 101 40% 2 27.04.2028 -
Nicolás Casa Barranquilla Aktiv 86 / 94 40% 1 27.04.2028 -
Agustín Martínez Cádiz Aktiv 102 / 108 40% 2 26.04.2028 -
Francisco Valdés Universidad Catolica Aktiv 90 / 101 40% 1 26.04.2028 -
Cristian Carrara Guidonia Montecelio Aktiv 111 / 108 40% 3 25.04.2028 -
Arseny Filev Chaika Aktiv 98 / 101 40% 1 25.04.2028 -
Franco Barrionuevo Racing Club Aktiv 108 / 112 40% 1 25.04.2028 -
Lionel Madriaga Belgrano Aktiv 91 / 101 40% 1 25.04.2028 -
Joel Abregu Temperley Aktiv 83 / 101 40% 1 24.04.2028 -
Eduard Ihnatov Ospitaletto Aktiv 91 / 98 40% 1 23.04.2028 -
Dilan Neves Benfica Aktiv 88 / 95 40% 1 23.04.2028 -
Uriel Ramos Austria Wien Aktiv 110 / 119 40% 1 23.04.2028 -
Máximo Núñez Los Andes Aktiv 94 / 107 40% 1 23.04.2028 -
Nikolay Tyulenev Nosta Aktiv 64 / 66 40% 1 23.04.2028 -
Dylan Moody Cheltenham Town Aktiv 120 / 126 40% 8 22.04.2028 -
Ulíses López Barracas Central Aktiv 97 / 102 40% 1 22.04.2028 -
Ryan Kavuma-McQueen Accrington Stanley Aktiv 121 / 128 40% 1 21.04.2028 -
Louis Zecevic-John Colchester United Aktiv 102 / 102 40% 1 21.04.2028 -
Fernando Bravo Almería Aktiv 99 / 115 40% 3 20.04.2028 -
Alfonso Álvarez Ferro Carril Oeste Aktiv 95 / 96 40% 2 20.04.2028 -
Luis Montilla Zorya Aktiv 92 / 103 40% 1 20.04.2028 -
Philippe Nguyen Tours Aktiv 102 / 108 40% 1 19.04.2028 -
João Tavares Porto Aktiv 81 / 76 40% 2 17.04.2028 -
Máximo Leguizamón Tigre Aktiv 98 / 115 40% 1 14.04.2028 -
Jorge Sánchez Carabobo Aktiv 105 / 97 40% 2 13.04.2028 -
Luca Meirelles Kudrivka Aktiv 124 / 134 40% 3 12.04.2028 -
Nathan Mbala FC Metz Aktiv 108 / 112 40% 1 12.04.2028 -
Yuri Leles Bragantino Aktiv 116 / 120 40% 1 12.04.2028 -
Robert Cook Accrington Stanley Aktiv 102 / 105 40% 2 11.04.2028 -
Igor Tyjon Barrow AFC Aktiv 125 / 122 40% 2 11.04.2028 -
Thiago Nahuel Independiente Aktiv 96 / 98 40% 1 11.04.2028 -
Anas Alaoui Lecco Aktiv 103 / 103 40% 1 11.04.2028 -
Julian Eyestone Brentford Aktiv 138 / 131 40% 2 10.04.2028 -
Emiliano Zacca Deportivo Riestra Aktiv 95 / 109 40% 2 10.04.2028 -
Lautaro Cueli San Lorenzo Aktiv 103 / 106 40% 2 09.04.2028 -
Juan Álvarez Argentinos Juniors Aktiv 94 / 93 40% 1 08.04.2028 -
Nazif Inoussa Benfica Aktiv 83 / 94 40% 2 06.04.2028 -
Danilo Monza Sarmiento Aktiv 91 / 107 40% 1 06.04.2028 -
Elion Krosa Odd Aktiv 87 / 103 40% 1 05.04.2028 -
Duván Córdoba Jaguares Aktiv 88 / 102 40% 2 04.04.2028 -
Lautaro Vera Platense Aktiv 103 / 107 40% 1 04.04.2028 -
Daniel Johan Skaarud Sandefjord Aktiv 103 / 102 40% 1 04.04.2028 -
Gustavo Wood Tigres Aktiv 89 / 89 40% 1 03.04.2028 -
Ryan Oné Sheffield United Aktiv 116 / 124 40% 1 03.04.2028 -
Yegor Koshkin Pobeda Aktiv 92 / 86 40% 3 01.04.2028 -
Gabriel Maureira Colo-Colo Aktiv 86 / 97 40% 1 01.04.2028 -
Álvaro Banquero Independiente Aktiv 122 / 119 40% 2 29.03.2028 -
Thiago Parga Huracán Aktiv 100 / 110 40% 1 29.03.2028 -
Santino Bacciadone Banfield Aktiv 91 / 89 40% 1 23.03.2028 -
Tomás Báez Boca Juniors Aktiv 94 / 95 40% 1 23.03.2028 -
Valentín Perroud Boca Juniors Aktiv 89 / 89 40% 2 22.03.2028 -
Pol Méndez Barcelona Aktiv 92 / 121 40% 1 22.03.2028 -
Gonçalo Sobral Benfica Aktiv 101 / 103 40% 1 21.03.2028 -
Ayoub Akabou Ceuta Aktiv 101 / 97 40% 1 21.03.2028 -
Walter Molina Defensa y Justicia Aktiv 96 / 97 40% 1 20.03.2028 -
Patricio Flores Defensa y Justicia Aktiv 89 / 99 40% 1 16.03.2028 -
Ignacio Fernández Boston River Verhandlung 89 / 101 40% 2 27.12.2027 -
Esquerdinha Notts County Aktiv 119 / 124 40% 1 27.12.2027 -
Daniel Idoko Ikorodu City Aktiv 88 / 102 40% 1 27.12.2027 -
Andres Casseres Llaneros Aktiv 67 / 81 40% 1 03.12.2027 -
Yury Oyarzo Racing Aktiv 97 / 98 40% 1 03.12.2027 -
Luis Abreu Olimpia Aktiv 90 / 101 69% 1 01.12.2027 Befürworten
Ander Astralaga Newcastle United Aktiv 146 / 148 40% 1 30.11.2027 -
Frankarlos Benítez Caracas Aktiv 113 / 114 40% 1 30.11.2027 -
Joe Whitworth Wigan Athletic Aktiv 113 / 117 40% 1 30.11.2027 -
Matteo Rizzo Cosenza Aktiv 112 / 103 40% 1 01.06.2027 -
Edmund Afful Hasaacas Aktiv 91 / 86 40% 1 01.06.2027 -
Sascha Britschgi AC Milan Aktiv 117 / 131 40% 2 30.05.2027 -
Finn Jeltsch VfB Stuttgart Aktiv 141 / 154 40% 2 30.05.2027 -
Martim Cunha Porto Aktiv 111 / 115 40% 1 30.05.2027 -
Ali Ahmed Norwich City Aktiv 113 / 132 40% 3 29.05.2027 -
Filip Marschall Stevenage Aktiv 109 / 119 40% 2 29.05.2027 -
Alex Robertson Cardiff City Aktiv 131 / 114 40% 1 29.05.2027 -
Josh Keeley Luton Town Aktiv 135 / 130 40% 1 29.05.2027 -
Jan Bürger Northampton Town Aktiv 100 / 111 40% 2 28.05.2027 -
Pietro Reggiori Pro Patria Aktiv 103 / 93 40% 1 28.05.2027 -
Juan Diego Perdomo Depor Aktiv 88 / 93 40% 1 28.05.2027 -
Nathan Broadhead Wrexham Aktiv 121 / 131 40% 2 27.05.2027 -
Mikey Johnston West Bromwich Albion Aktiv 121 / 125 40% 1 27.05.2027 -
Jack Diamond Stockport County Aktiv 128 / 119 40% 1 27.05.2027 -
Andrea Bertoncini Triestina Aktiv 88 / 88 40% 1 27.05.2027 -
Ivan Giraldo Valencia Aktiv 127 / 140 40% 1 27.05.2027 -
Simone Kosijer Triestina Aktiv 102 / 113 40% 2 26.05.2027 -
Ale García Las Palmas Aktiv 133 / 141 40% 1 25.05.2027 -
Chari Giwa US Bougouni Aktiv 81 / 83 40% 1 25.05.2027 -
Agustín De la Cuesta Racing Aktiv 103 / 123 40% 1 25.05.2027 -
Isaiah Jones Luton Town Aktiv 121 / 117 40% 3 24.05.2027 -
Alessio Zerbin Frosinone Aktiv 134 / 136 40% 2 24.05.2027 -
Zane Albarus Shrewsbury Town Aktiv 102 / 113 40% 1 24.05.2027 -
Mattia Puzone Siracusa Aktiv 96 / 110 40% 1 24.05.2027 -
Malik Mothersille Stockport County Aktiv 123 / 122 40% 4 23.05.2027 -
Ludovico Del Sorbo Sorrento Aktiv 112 / 99 40% 3 23.05.2027 -
Alfie Doughty Millwall Aktiv 119 / 127 40% 1 23.05.2027 -
Strahinja Manojlović Radnicki Nis Aktiv 118 / 118 40% 1 23.05.2027 -
Elia Boseggia Novara Aktiv 101 / 121 40% 2 22.05.2027 -
Job Ochieng Real Sociedad Aktiv 107 / 97 40% 2 21.05.2027 -
Dennis Cirkin Queens Park Rangers Aktiv 118 / 136 40% 1 21.05.2027 -
Gladson Amoah Liberty Professionals Aktiv 101 / 91 40% 1 20.05.2027 -
Francesco D'Alterio Ternana Aktiv 100 / 118 40% 1 20.05.2027 -
Ezra Mayers West Ham United Aktiv 127 / 130 40% 1 19.05.2027 -
Miguel Figueiredo Benfica Aktiv 103 / 111 40% 1 17.05.2027 -
Rhys Walters Port Vale Aktiv 102 / 101 40% 1 17.05.2027 -
Sławomir Abramowicz Jagiellonia Aktiv 115 / 118 40% 1 15.05.2027 -
Tiago Freitas Benfica Aktiv 108 / 117 40% 2 14.05.2027 -
Bence Dárdai VfL Wolfsburg Aktiv 129 / 130 40% 1 14.05.2027 -
Jason Knight Bristol City Aktiv 138 / 135 40% 2 11.05.2027 -
Ivan Pakholiuk Kolos Aktiv 111 / 126 40% 1 10.05.2027 -
Cesare Galeotti Trapani Aktiv 99 / 109 40% 1 10.05.2027 -
Sheyi Ojo Crewe Alexandra Aktiv 110 / 97 40% 4 08.05.2027 -
Leandro Martins Benfica Aktiv 105 / 100 40% 1 08.05.2027 -
Joel Bagan Cardiff City Aktiv 106 / 127 40% 1 07.05.2027 -
Gonçalo Oliveira Benfica Aktiv 116 / 127 40% 1 06.05.2027 -
Kazunari Kita Real Sociedad Aktiv 105 / 114 40% 1 06.05.2027 -
Oladapo Afolayan Blackburn Rovers Aktiv 116 / 112 40% 2 04.05.2027 -
Nicolás Muscio AFC Wimbledon Aktiv 94 / 111 40% 1 04.05.2027 -
Justo Giani Umraniyespor Aktiv 117 / 129 40% 5 02.05.2027 -
Daniel Kyerewaa Reading Aktiv 120 / 115 40% 2 30.04.2027 -
Ilyas Ansah Hull City Aktiv 124 / 130 40% 1 30.04.2027 -
André Vidigal Hearts of Oak Aktiv 115 / 115 40% 4 26.04.2027 -
Jackson Muleka Konyaspor Aktiv 121 / 118 40% 1 25.04.2027 -
Othmane Maamma Watford Aktiv 118 / 137 40% 1 23.04.2027 -
Josh Tymon Swansea City Aktiv 120 / 135 40% 1 23.04.2027 -
Alex Lowry Wycombe Wanderers Aktiv 126 / 115 40% 1 22.04.2027 -
Ekain Orobengoa Real Sociedad Aktiv 95 / 110 40% 1 22.04.2027 -
Killian Cahill Leyton Orient Aktiv 109 / 122 40% 1 20.04.2027 -
Rocco Vata Watford Aktiv 114 / 125 40% 2 19.04.2027 -
Louie Barry Sheffield Wednesday Aktiv 113 / 112 40% 1 17.04.2027 -
Bosun Lawal Stoke City Aktiv 115 / 129 40% 1 14.04.2027 -
Cian Ashford Cardiff City Aktiv 118 / 130 40% 2 12.04.2027 -
Joe Gelhardt Hull City Aktiv 126 / 120 40% 1 05.04.2027 -
Lander Astiazarán Real Sociedad Aktiv 114 / 118 40% 1 31.03.2027 -
Tahith Chong Sheffield United Aktiv 115 / 124 40% 1 28.03.2027 -
Pelle Mattsson Norwich City Aktiv 135 / 114 40% 1 28.03.2027 -
Myles Peart-Harris Oxford United Aktiv 125 / 131 40% 1 25.03.2027 -
Lautaro Calderón Asante Kotoko Aktiv 96 / 102 40% 1 25.03.2027 -
Sam Greenwood Bristol City Aktiv 116 / 121 40% 1 22.03.2027 -
Mateo Jara Sportivo Luqueno Aktiv 71 / 81 62% 1 21.12.2026 Befürworten
Harry Clarke Preston Aktiv 113 / 142 40% 1 30.11.2026 -
Brooke Norton-Cuffy Hull City Aktiv 147 / 137 40% 1 26.11.2026 -
Manu Morlanes Mallorca Aktiv 136 / 144 40% 1 26.11.2026 -
Florentino Luís Ipswich Town Aktiv 147 / 151 40% 1 23.11.2026 -
Max Bird Birmingham Aktiv 143 / 122 40% 1 20.11.2026 -
Lewis Gibson Preston Aktiv 134 / 134 40% 1 20.11.2026 -
Sandi Zajc NK Domzale Aktiv 93 / 102 40% 1 18.10.2026 -
Ranko Veselinović Vancouver Whitecaps Aktiv 133 / 131 40% 1 18.10.2026 -
Sebastián Miño Patronato Aktiv 85 / 74 40% 1 04.08.2026 -